Weather at Rush City Regional Airport

Public forecast

Using degrees Fahrenheit for public forecast. Weather courtesy of forecast.io.

Current aviation weather report (METAR) for Rush City Regional Airport

Retrieved 2020/11/26 14:35 UTC (14 minutes ago):

KROS 261435Z AUTO 24003KT 10SM OVC013 00/M02 A2987 RMK AO2 T10041025

Closest aviation forecast (TAF) to Rush City Regional Airport

Forecast is more than 12 hours old.

Closest forecast is Anoka County-Blaine (Janes Field) Airport, 34.9 nm (64.7 km) SSW. Retrieved 2018/02/05 00:21 UTC (3 years ago):

TAF KANE 052320Z 0600/0624 28008KT P6SM FEW025 FM060300 30005KT P6SM FEW250 FM061600 21005KT P6SM SCT250 AMD NOT SKED